createdAt,value
2022-12-08T00:01:18.899Z,2.10
2022-12-08T00:03:46.693Z,2.20
2022-12-08T00:06:26.011Z,2.20
2022-12-08T00:08:53.530Z,2.30
2022-12-08T00:11:20.640Z,2.30
2022-12-08T00:13:48.065Z,2.30
2022-12-08T00:16:15.327Z,2.30
2022-12-08T00:18:42.655Z,2.30
2022-12-08T00:21:09.662Z,2.30
2022-12-08T00:23:37.112Z,2.30
2022-12-08T00:26:05.045Z,2.30
2022-12-08T00:28:33.590Z,2.30
2022-12-08T00:31:06.778Z,2.30
2022-12-08T00:33:34.342Z,2.30
2022-12-08T00:36:07.258Z,2.30
2022-12-08T00:38:36.347Z,2.30
2022-12-08T00:41:07.069Z,2.30
2022-12-08T00:43:36.906Z,2.30
2022-12-08T00:46:04.162Z,2.40
2022-12-08T00:48:31.902Z,2.30
2022-12-08T00:51:01.595Z,2.40
2022-12-08T00:53:31.318Z,2.40
2022-12-08T00:55:58.466Z,2.40
2022-12-08T00:58:28.305Z,2.40
2022-12-08T01:00:55.573Z,2.40
2022-12-08T01:03:23.149Z,2.40
2022-12-08T01:05:52.692Z,2.40
2022-12-08T01:08:20.326Z,2.40
2022-12-08T01:10:49.922Z,2.40
2022-12-08T01:13:19.755Z,2.30
2022-12-08T01:15:46.922Z,2.40
2022-12-08T01:18:16.693Z,2.40
2022-12-08T01:20:45.977Z,2.30
2022-12-08T01:23:13.569Z,2.30
2022-12-08T01:25:40.845Z,2.40
2022-12-08T01:28:08.220Z,2.40
2022-12-08T01:30:41.727Z,2.40
2022-12-08T01:33:11.573Z,2.40
2022-12-08T01:35:38.793Z,2.40
2022-12-08T01:38:06.208Z,2.40
2022-12-08T01:40:33.545Z,2.40
2022-12-08T01:43:01.056Z,2.40
2022-12-08T01:45:30.370Z,2.50
2022-12-08T01:48:06.213Z,2.50
2022-12-08T01:50:33.944Z,2.50
2022-12-08T01:53:15.906Z,2.40
2022-12-08T01:55:50.253Z,2.40
2022-12-08T01:58:27.053Z,2.40
2022-12-08T02:00:54.458Z,2.40
2022-12-08T02:03:44.782Z,2.40
2022-12-08T02:06:16.068Z,2.40
2022-12-08T02:08:44.451Z,2.40
2022-12-08T02:11:14.631Z,2.40
2022-12-08T02:13:44.280Z,2.40
2022-12-08T02:16:45.589Z,2.40
2022-12-08T02:19:32.178Z,2.40
2022-12-08T02:22:27.196Z,2.40
2022-12-08T02:25:00.329Z,2.40
2022-12-08T02:27:48.836Z,2.40
2022-12-08T02:30:30.765Z,2.40
2022-12-08T02:33:10.296Z,2.50
2022-12-08T02:36:06.972Z,2.50
2022-12-08T02:38:53.528Z,2.60
2022-12-08T02:41:36.987Z,2.60
2022-12-08T02:44:11.845Z,2.70
2022-12-08T02:46:52.365Z,2.70
2022-12-08T02:49:19.952Z,2.70
2022-12-08T02:51:47.393Z,2.80
2022-12-08T02:54:15.444Z,2.80
2022-12-08T02:56:46.119Z,2.90
2022-12-08T02:59:28.038Z,2.90
2022-12-08T03:02:33.055Z,2.90
2022-12-08T03:05:32.680Z,3.00
2022-12-08T03:08:08.943Z,2.90
2022-12-08T03:10:44.606Z,2.90
2022-12-08T03:13:20.695Z,2.80
2022-12-08T03:15:50.632Z,2.80
2022-12-08T03:18:20.461Z,2.80
2022-12-08T03:20:51.071Z,2.80
2022-12-08T03:23:23.553Z,2.70
2022-12-08T03:26:08.913Z,2.70
2022-12-08T03:28:36.428Z,2.70
2022-12-08T03:31:07.181Z,2.60
2022-12-08T03:33:42.485Z,2.50
2022-12-08T03:36:11.390Z,2.40
2022-12-08T03:38:45.800Z,2.40
2022-12-08T03:41:13.249Z,2.30
2022-12-08T03:43:40.772Z,2.30
2022-12-08T03:46:07.809Z,2.30
2022-12-08T03:48:37.713Z,2.20
2022-12-08T03:51:04.756Z,2.20
2022-12-08T03:53:32.149Z,2.20
2022-12-08T03:56:03.205Z,2.30
2022-12-08T03:58:35.811Z,2.30
2022-12-08T04:01:04.499Z,2.40
2022-12-08T04:03:34.355Z,2.40
2022-12-08T04:06:01.445Z,2.40
2022-12-08T04:08:29.330Z,2.40
2022-12-08T04:10:56.423Z,2.40
2022-12-08T04:13:23.722Z,2.50
2022-12-08T04:15:51.441Z,2.50
2022-12-08T04:18:21.304Z,2.50
2022-12-08T04:20:48.358Z,2.50
2022-12-08T04:23:16.137Z,2.50
2022-12-08T04:25:45.782Z,2.50
2022-12-08T04:28:13.079Z,2.40
2022-12-08T04:30:40.429Z,2.40
2022-12-08T04:33:07.739Z,2.40
2022-12-08T04:35:34.886Z,2.40
2022-12-08T04:38:07.237Z,2.40
2022-12-08T04:40:34.299Z,2.40
2022-12-08T04:43:01.616Z,2.40
2022-12-08T04:45:29.068Z,2.30
2022-12-08T04:47:56.449Z,2.40
2022-12-08T04:50:23.448Z,2.30
2022-12-08T04:52:51.144Z,2.30
2022-12-08T04:55:18.251Z,2.30
2022-12-08T04:57:47.869Z,2.30
2022-12-08T05:00:16.479Z,2.20
2022-12-08T05:02:43.928Z,2.20
2022-12-08T05:05:13.455Z,2.20
2022-12-08T05:07:41.446Z,2.10
2022-12-08T05:10:11.468Z,2.10
2022-12-08T05:12:38.845Z,2.10
2022-12-08T05:15:09.521Z,2.10
2022-12-08T05:17:36.884Z,2.10
2022-12-08T05:20:04.890Z,2.10
2022-12-08T05:22:32.984Z,2.10
2022-12-08T05:25:00.009Z,2.10
2022-12-08T05:27:27.463Z,2.10
2022-12-08T05:29:55.069Z,2.10
2022-12-08T05:32:22.528Z,2.20
2022-12-08T05:34:49.550Z,2.20
2022-12-08T05:37:17.250Z,2.20
2022-12-08T05:39:44.264Z,2.30
2022-12-08T05:42:14.116Z,2.20
2022-12-08T05:44:43.939Z,2.20
2022-12-08T05:47:11.305Z,2.20
2022-12-08T05:49:38.340Z,2.20
2022-12-08T05:52:08.338Z,2.10
2022-12-08T05:54:37.892Z,2.10
2022-12-08T05:57:09.717Z,2.10
2022-12-08T05:59:36.914Z,2.10
2022-12-08T06:02:04.382Z,2.10
2022-12-08T06:04:34.064Z,2.10
2022-12-08T06:07:01.593Z,2.00
2022-12-08T06:09:28.621Z,2.00
2022-12-08T06:11:58.332Z,2.00
2022-12-08T06:14:25.482Z,2.00
2022-12-08T06:16:52.899Z,2.00
2022-12-08T06:19:20.116Z,2.00
2022-12-08T06:21:47.633Z,2.00
2022-12-08T06:24:14.917Z,2.00
2022-12-08T06:26:47.190Z,2.00
2022-12-08T06:29:14.783Z,1.90
2022-12-08T06:31:44.493Z,2.00
2022-12-08T06:34:11.760Z,2.00
2022-12-08T06:36:39.151Z,2.00
2022-12-08T06:39:06.174Z,2.00
2022-12-08T06:41:33.473Z,2.00
2022-12-08T06:44:00.648Z,2.00
2022-12-08T06:46:30.449Z,2.00
2022-12-08T06:48:59.710Z,2.00
2022-12-08T06:51:27.192Z,2.00
2022-12-08T06:53:54.226Z,2.00
2022-12-08T06:56:21.824Z,2.00
2022-12-08T06:58:53.058Z,2.00
2022-12-08T07:01:23.368Z,2.00
2022-12-08T07:03:50.543Z,2.00
2022-12-08T07:06:25.641Z,2.10
2022-12-08T07:08:52.909Z,2.10
2022-12-08T07:11:22.358Z,2.10
2022-12-08T07:13:50.636Z,2.10
2022-12-08T07:16:20.621Z,2.10
2022-12-08T07:18:47.736Z,2.10
2022-12-08T07:21:20.442Z,2.20
2022-12-08T07:23:54.348Z,2.20
2022-12-08T07:26:27.188Z,2.20
2022-12-08T07:28:56.591Z,2.20
2022-12-08T07:31:25.546Z,2.30
2022-12-08T07:33:56.478Z,2.30
2022-12-08T07:36:24.998Z,2.30
2022-12-08T07:38:52.580Z,2.40
2022-12-08T07:41:25.410Z,2.50
2022-12-08T07:43:56.228Z,2.60
2022-12-08T07:46:25.412Z,2.60
2022-12-08T07:48:54.416Z,2.70
2022-12-08T07:51:21.873Z,2.70
2022-12-08T07:53:53.811Z,2.70
2022-12-08T07:56:22.775Z,2.70
2022-12-08T07:58:50.336Z,2.60
2022-12-08T08:01:30.156Z,2.60
2022-12-08T08:04:00.046Z,2.60
2022-12-08T08:06:28.339Z,2.60
2022-12-08T08:08:57.641Z,2.60
2022-12-08T08:11:27.433Z,2.70
2022-12-08T08:13:54.504Z,2.80
2022-12-08T08:16:21.944Z,2.80
2022-12-08T08:18:50.941Z,2.90
2022-12-08T08:21:44.430Z,2.90
2022-12-08T08:24:06.904Z,2.90
2022-12-08T08:26:37.248Z,3.00
2022-12-08T08:29:04.327Z,3.10
2022-12-08T08:31:34.513Z,3.20
2022-12-08T08:34:01.676Z,3.30
2022-12-08T08:36:31.217Z,3.40
2022-12-08T08:38:58.672Z,3.50
2022-12-08T08:41:25.994Z,3.50
2022-12-08T08:43:54.893Z,3.60
2022-12-08T08:46:27.311Z,3.70
2022-12-08T08:48:54.433Z,3.80
2022-12-08T08:51:21.774Z,3.90
2022-12-08T08:53:49.253Z,4.20
2022-12-08T08:56:19.437Z,4.60
2022-12-08T08:58:50.989Z,5.40
2022-12-08T09:01:21.361Z,5.80
2022-12-08T09:03:51.536Z,6.30
2022-12-08T09:06:19.813Z,6.30
2022-12-08T09:08:47.610Z,5.90
2022-12-08T09:11:20.364Z,6.00
2022-12-08T09:13:52.321Z,6.80
2022-12-08T09:16:22.949Z,7.00
2022-12-08T09:18:50.506Z,6.90
2022-12-08T09:21:26.639Z,7.20
2022-12-08T09:23:56.321Z,8.10
2022-12-08T09:26:27.114Z,9.00
2022-12-08T09:28:56.284Z,9.90
2022-12-08T09:31:24.818Z,11.40
2022-12-08T09:33:54.502Z,13.00
2022-12-08T09:36:22.307Z,14.40
2022-12-08T09:38:49.535Z,15.20
2022-12-08T09:41:47.685Z,15.60
2022-12-08T09:44:33.947Z,15.90
2022-12-08T09:47:04.631Z,15.20
2022-12-08T09:49:41.802Z,14.70
2022-12-08T09:52:33.613Z,15.40
2022-12-08T09:55:09.324Z,14.40
2022-12-08T09:57:37.247Z,13.50
2022-12-08T10:00:07.638Z,11.90
2022-12-08T10:02:35.202Z,10.20
2022-12-08T10:05:02.641Z,8.80
2022-12-08T10:07:37.480Z,7.70
2022-12-08T10:10:13.704Z,7.20
2022-12-08T10:12:48.114Z,6.80
2022-12-08T10:15:40.487Z,6.90
2022-12-08T10:18:17.893Z,6.90
2022-12-08T10:20:48.085Z,7.10
2022-12-08T10:23:24.835Z,7.50
2022-12-08T10:26:07.551Z,7.20
2022-12-08T10:28:38.794Z,7.10
2022-12-08T10:31:16.961Z,7.50
2022-12-08T10:33:53.731Z,8.20
2022-12-08T10:36:23.183Z,8.40
2022-12-08T10:38:52.941Z,8.60
2022-12-08T10:41:20.397Z,8.50
2022-12-08T10:43:50.633Z,8.20
2022-12-08T10:46:21.613Z,8.40
2022-12-08T10:49:10.071Z,8.50
2022-12-08T10:51:40.425Z,8.40
2022-12-08T10:54:27.619Z,8.30
2022-12-08T10:56:56.567Z,8.10
2022-12-08T10:59:26.591Z,7.70
2022-12-08T11:01:56.104Z,7.50
2022-12-08T11:04:34.991Z,7.20
2022-12-08T11:07:04.478Z,6.80
2022-12-08T11:09:42.607Z,6.30
2022-12-08T11:12:18.132Z,6.10
2022-12-08T11:14:45.656Z,5.60
2022-12-08T11:17:16.716Z,5.60
2022-12-08T11:19:54.466Z,5.50
2022-12-08T11:22:30.937Z,5.40
2022-12-08T11:25:12.161Z,5.30
2022-12-08T11:27:44.773Z,5.20
2022-12-08T11:30:16.990Z,5.30
2022-12-08T11:32:53.174Z,5.30
2022-12-08T11:35:32.549Z,5.20
2022-12-08T11:38:20.577Z,5.10
2022-12-08T11:40:53.201Z,5.20
2022-12-08T11:43:42.700Z,5.20
2022-12-08T11:46:20.337Z,5.20
2022-12-08T11:48:51.211Z,5.20
2022-12-08T11:51:33.474Z,5.10
2022-12-08T11:54:00.623Z,5.10
2022-12-08T11:56:37.328Z,5.20
2022-12-08T11:59:27.430Z,5.40
2022-12-08T12:01:58.528Z,5.50
2022-12-08T12:04:52.773Z,5.70
2022-12-08T12:07:41.159Z,6.00
2022-12-08T12:10:38.682Z,6.20
2022-12-08T12:13:33.644Z,6.50
2022-12-08T12:16:28.805Z,6.80
2022-12-08T12:19:10.056Z,7.00
2022-12-08T12:21:42.483Z,7.10
2022-12-08T12:24:25.497Z,7.20
2022-12-08T12:27:02.551Z,7.40
2022-12-08T12:29:33.236Z,7.50
2022-12-08T12:32:08.625Z,7.60
2022-12-08T12:34:46.745Z,7.50
2022-12-08T12:37:18.694Z,7.50
2022-12-08T12:40:08.420Z,7.40
2022-12-08T12:42:48.594Z,7.30
2022-12-08T12:45:15.871Z,7.10
2022-12-08T12:47:58.213Z,6.70
2022-12-08T12:50:34.429Z,6.60
2022-12-08T12:53:16.745Z,6.50
2022-12-08T12:56:04.514Z,6.30
2022-12-08T12:58:31.803Z,6.20
2022-12-08T13:01:11.574Z,6.00
2022-12-08T13:03:49.570Z,5.80
2022-12-08T13:06:35.636Z,5.70
2022-12-08T13:09:03.395Z,5.40
2022-12-08T13:11:47.771Z,5.30
2022-12-08T13:14:44.260Z,5.30
2022-12-08T13:17:15.599Z,5.10
2022-12-08T13:19:51.563Z,5.10
2022-12-08T13:22:53.107Z,5.00
2022-12-08T13:25:39.086Z,5.00
2022-12-08T13:28:27.805Z,4.70
2022-12-08T13:30:57.421Z,4.50
2022-12-08T13:33:27.819Z,4.50
2022-12-08T13:36:22.016Z,4.30
2022-12-08T13:38:56.556Z,4.20
2022-12-08T13:41:42.837Z,4.30
2022-12-08T13:47:33.438Z,4.40
2022-12-08T13:54:09.929Z,4.40
2022-12-08T13:56:59.680Z,4.40
2022-12-08T13:58:49.494Z,4.40
2022-12-08T14:01:26.491Z,4.30
2022-12-08T14:06:48.190Z,4.40
2022-12-08T14:09:21.019Z,4.30
2022-12-08T14:12:21.078Z,4.20
2022-12-08T14:15:03.352Z,4.20
2022-12-08T14:17:32.492Z,3.90
2022-12-08T14:20:14.215Z,3.70
2022-12-08T14:22:41.892Z,3.70
2022-12-08T14:25:16.797Z,3.60
2022-12-08T14:27:45.160Z,3.50
2022-12-08T14:30:41.916Z,3.50
2022-12-08T14:33:14.889Z,3.30
2022-12-08T14:35:42.104Z,3.30
2022-12-08T14:38:13.837Z,3.30
2022-12-08T14:40:46.333Z,3.30
2022-12-08T14:43:20.204Z,3.20
2022-12-08T14:45:48.727Z,3.30
2022-12-08T14:48:42.378Z,3.30
2022-12-08T14:51:18.464Z,3.30
2022-12-08T14:53:55.063Z,3.30
2022-12-08T14:56:43.003Z,3.40
2022-12-08T14:59:16.642Z,3.40
2022-12-08T15:01:45.116Z,3.40
2022-12-08T15:04:12.406Z,3.50
2022-12-08T15:07:00.752Z,3.50
2022-12-08T15:10:06.725Z,3.50
2022-12-08T15:12:34.206Z,3.50
2022-12-08T15:15:16.533Z,3.60
2022-12-08T15:17:49.630Z,3.80
2022-12-08T15:20:39.002Z,3.60
2022-12-08T15:23:16.485Z,3.40
2022-12-08T15:25:43.994Z,3.40
2022-12-08T15:28:15.726Z,3.20
2022-12-08T15:30:46.038Z,3.20
2022-12-08T15:33:15.787Z,3.20
2022-12-08T15:35:44.108Z,3.40
2022-12-08T15:38:19.735Z,3.10
2022-12-08T15:40:50.345Z,3.10
2022-12-08T15:43:17.413Z,3.30
2022-12-08T15:45:58.008Z,3.10
2022-12-08T15:48:30.518Z,3.50
2022-12-08T15:50:58.731Z,3.10
2022-12-08T15:53:25.908Z,3.00
2022-12-08T15:56:25.775Z,3.10
2022-12-08T15:58:57.200Z,3.30
2022-12-08T16:01:28.043Z,3.10
2022-12-08T16:09:42.287Z,2.60
2022-12-08T16:12:40.960Z,3.60
2022-12-08T16:18:03.109Z,3.10
2022-12-08T16:21:05.243Z,3.20
2022-12-08T16:23:34.615Z,3.20
2022-12-08T16:26:44.709Z,3.10
2022-12-08T16:28:54.868Z,3.00
2022-12-08T16:31:23.396Z,2.80
2022-12-08T16:33:50.989Z,2.80
2022-12-08T16:36:18.243Z,2.80
2022-12-08T16:38:45.602Z,2.70
2022-12-08T16:41:16.897Z,2.70
2022-12-08T16:43:44.445Z,2.60
2022-12-08T16:46:21.270Z,2.60
2022-12-08T16:48:48.977Z,2.50
2022-12-08T16:51:22.017Z,2.50
2022-12-08T16:53:57.385Z,2.50
2022-12-08T16:56:30.646Z,2.50
2022-12-08T16:59:00.361Z,2.50
2022-12-08T17:01:27.736Z,2.40
2022-12-08T17:06:44.552Z,2.40
2022-12-08T17:09:11.881Z,2.30
2022-12-08T17:11:43.066Z,2.30
2022-12-08T17:14:14.270Z,2.30
2022-12-08T17:16:42.048Z,2.30
2022-12-08T17:19:10.026Z,2.30
2022-12-08T17:21:37.355Z,2.30
2022-12-08T17:24:04.946Z,2.40
2022-12-08T17:26:32.164Z,2.30
2022-12-08T17:29:02.563Z,2.30
2022-12-08T17:31:32.813Z,2.40
2022-12-08T17:34:04.952Z,2.30
2022-12-08T17:36:34.511Z,2.30
2022-12-08T17:39:02.175Z,2.30
2022-12-08T17:41:31.915Z,2.30
2022-12-08T17:44:02.288Z,2.30
2022-12-08T17:46:29.327Z,2.20
2022-12-08T17:48:56.646Z,2.20
2022-12-08T17:51:26.007Z,2.10
2022-12-08T17:53:55.638Z,2.10
2022-12-08T17:56:22.642Z,2.10
2022-12-08T17:58:55.302Z,2.10
2022-12-08T18:01:24.103Z,2.00
2022-12-08T18:03:51.788Z,2.10
2022-12-08T18:06:19.118Z,2.00
2022-12-08T18:08:47.090Z,2.00
2022-12-08T18:11:17.279Z,2.00
2022-12-08T18:13:45.922Z,2.00
2022-12-08T18:16:13.495Z,2.00
2022-12-08T18:18:43.846Z,2.00
2022-12-08T18:21:11.150Z,2.00
2022-12-08T18:23:39.848Z,1.90
2022-12-08T18:26:08.965Z,1.90
2022-12-08T18:28:39.339Z,1.90
2022-12-08T18:31:14.605Z,1.80
2022-12-08T18:33:46.385Z,1.80
2022-12-08T18:36:19.674Z,1.80
2022-12-08T18:38:47.394Z,1.80
2022-12-08T18:41:20.013Z,1.80
2022-12-08T18:43:47.430Z,1.80
2022-12-08T18:46:17.327Z,1.80
2022-12-08T18:48:47.605Z,1.80
2022-12-08T18:51:17.438Z,1.80
2022-12-08T18:53:46.389Z,1.90
2022-12-08T18:56:31.078Z,1.90
2022-12-08T18:59:03.621Z,2.00
2022-12-08T19:01:33.340Z,2.00
2022-12-08T19:06:52.767Z,1.90
2022-12-08T19:09:25.281Z,1.90
2022-12-08T19:11:54.954Z,1.90
2022-12-08T19:14:28.089Z,1.90
2022-12-08T19:16:58.170Z,1.90
2022-12-08T19:19:28.897Z,2.00
2022-12-08T19:21:56.565Z,1.90
2022-12-08T19:24:24.773Z,1.90
2022-12-08T19:26:52.541Z,2.00
2022-12-08T19:29:19.923Z,2.00
2022-12-08T19:31:47.260Z,2.00
2022-12-08T19:34:15.215Z,2.00
2022-12-08T19:36:42.808Z,2.00
2022-12-08T19:39:26.381Z,2.00
2022-12-08T19:41:53.564Z,2.00
2022-12-08T19:44:21.047Z,2.00
2022-12-08T19:46:52.830Z,2.00
2022-12-08T19:49:20.687Z,1.90
2022-12-08T19:51:47.898Z,1.90
2022-12-08T19:54:15.350Z,1.90
2022-12-08T19:56:42.518Z,1.90
2022-12-08T19:59:10.211Z,1.80
2022-12-08T20:01:37.401Z,1.80
2022-12-08T20:04:05.223Z,1.80
2022-12-08T20:06:32.446Z,1.80
2022-12-08T20:08:59.877Z,1.80
2022-12-08T20:11:27.093Z,1.80
2022-12-08T20:13:54.468Z,1.70
2022-12-08T20:16:21.625Z,1.70
2022-12-08T20:18:49.100Z,1.70
2022-12-08T20:21:17.331Z,1.70
2022-12-08T20:23:44.746Z,1.60
2022-12-08T20:26:13.374Z,1.70
2022-12-08T20:28:40.704Z,1.70
2022-12-08T20:31:07.840Z,1.60
2022-12-08T20:33:38.004Z,1.60
2022-12-08T20:36:13.411Z,1.60
2022-12-08T20:38:42.146Z,1.60
2022-12-08T20:41:11.606Z,1.60
2022-12-08T20:43:39.107Z,1.60
2022-12-08T20:46:07.597Z,1.60
2022-12-08T20:48:35.413Z,1.70
2022-12-08T20:51:02.957Z,1.70
2022-12-08T20:53:30.888Z,1.70
2022-12-08T20:56:00.272Z,1.70
2022-12-08T20:58:27.629Z,1.70
2022-12-08T21:00:54.810Z,1.70
2022-12-08T21:03:22.455Z,1.70
2022-12-08T21:05:54.720Z,1.70
2022-12-08T21:08:22.650Z,1.70
2022-12-08T21:10:56.720Z,1.60
2022-12-08T21:13:24.784Z,1.70
2022-12-08T21:15:54.538Z,1.60
2022-12-08T21:18:22.715Z,1.60
2022-12-08T21:20:50.638Z,1.60
2022-12-08T21:23:21.101Z,1.70
2022-12-08T21:25:48.199Z,1.60
2022-12-08T21:28:15.759Z,1.60
2022-12-08T21:30:43.210Z,1.60
2022-12-08T21:33:10.874Z,1.50
2022-12-08T21:35:41.286Z,1.50
2022-12-08T21:38:08.697Z,1.50
2022-12-08T21:40:36.011Z,1.40
2022-12-08T21:43:03.835Z,1.40
2022-12-08T21:45:33.571Z,1.40
2022-12-08T21:48:10.294Z,1.40
2022-12-08T21:50:38.344Z,1.30
2022-12-08T21:53:06.196Z,1.20
2022-12-08T21:55:33.350Z,1.20
2022-12-08T21:58:03.453Z,1.20
2022-12-08T22:00:31.268Z,1.20
2022-12-08T22:02:58.935Z,1.10
2022-12-08T22:05:26.106Z,1.10
2022-12-08T22:07:54.182Z,1.10
2022-12-08T22:10:21.517Z,1.10
2022-12-08T22:12:49.136Z,1.20
2022-12-08T22:15:16.721Z,1.30
2022-12-08T22:17:44.189Z,1.30
2022-12-08T22:20:14.119Z,1.40
2022-12-08T22:22:44.709Z,1.50
2022-12-08T22:25:11.912Z,1.60
2022-12-08T22:27:40.183Z,1.60
2022-12-08T22:30:08.620Z,1.50
2022-12-08T22:32:36.464Z,1.40
2022-12-08T22:35:03.711Z,1.40
2022-12-08T22:37:31.628Z,1.30
2022-12-08T22:39:58.808Z,1.30
2022-12-08T22:42:28.460Z,1.30
2022-12-08T22:44:56.140Z,1.30
2022-12-08T22:47:25.981Z,1.20
2022-12-08T22:49:53.014Z,1.20
2022-12-08T22:52:20.900Z,1.30
2022-12-08T22:54:48.118Z,1.40
2022-12-08T22:57:15.490Z,1.30
2022-12-08T22:59:43.149Z,1.30
2022-12-08T23:02:10.944Z,1.40
2022-12-08T23:04:38.679Z,1.40
2022-12-08T23:07:06.483Z,1.40
2022-12-08T23:09:33.767Z,1.40
2022-12-08T23:12:01.224Z,1.80
2022-12-08T23:14:28.958Z,1.80
2022-12-08T23:16:56.363Z,1.50
2022-12-08T23:19:23.649Z,1.50
2022-12-08T23:21:53.483Z,1.60
2022-12-08T23:24:20.693Z,1.60
2022-12-08T23:26:48.069Z,1.60
2022-12-08T23:29:15.664Z,1.60
2022-12-08T23:31:45.817Z,1.60
2022-12-08T23:34:13.075Z,1.70
2022-12-08T23:36:43.454Z,1.50
2022-12-08T23:39:11.651Z,1.50
2022-12-08T23:41:41.819Z,1.50
2022-12-08T23:44:09.331Z,1.50
2022-12-08T23:46:36.964Z,1.50
2022-12-08T23:49:04.848Z,1.50
2022-12-08T23:51:35.174Z,1.50
2022-12-08T23:54:05.083Z,1.50
2022-12-08T23:56:35.159Z,1.40
2022-12-08T23:59:05.177Z,1.30
